Ivanhoe, Texas
Current Conditions -  °F | °C
As of 6:35 PM on Monday 24 Nov 2014 (Local Time) from KDUA Reporting Station
Clear Clear  
Wind Chill: 48°   Ceiling: Unl
Heat Index: 48°   Visibility: 10mi
Dew Point: 25°   Wind: 0mph
Humidity: 40%   Direction: NA
Pressure: 30.07"   Gusts: NA
Location:  33.71°N, 96.14°W
Report Text: KDUA 250035Z AUTO 00000KT 10SM CLR 09/M04 A3007 RMK AO2
Loading
Personal Weather Stations






























Interactive Weather Map New forecast layout! Learn more

10-Day Weather Forecast

Advertisements
Track Severe Weather on mobile